Current | Forecast
Updated: 11:30 PM CET on November 21, 2017
Observed at Valencia Aeropuerto, Spain
Temperature 7°C
Humidity 81%
Dew Point 4°C
Wind Variable at 4 km/h
Pressure 1020 hPa (Steady)
Conditions Clear
Visibility -
UV N/A
Clouds
Yesterday's Maximum 19°C
Yesterday's Minimum 5°C approx.
Yesterday's Heating Degree Days 11 approx.
Sunrise7:53 AM CET
Sunset5:41 PM CET
Moon Rise10:13 AM CET
Moon Set8:11 PM CET
Moon PhaseMoon Phase
Waxing Crescent
Raw METARMETAR LEVC 212230Z VRB02KT CAVOK 07/04 Q1020 NOSIG


Monday
. High: 87° F.
Tuesday
. High: 80° F.
Wednesday
. High: 78° F.
Thursday
. High: 77° F.
Friday
. High: 75° F.
Saturday
. High: 84° F.
Sunday
. High: 84° F.
Monday
. High: 80° F.

Click here for Marine Information
Scientific forecaster discussion (NWS)

Units: English | Metric

Find the Weather for any City, State or Zipcode, or Country:

U.S. State List | Severe Weather | Tropical Storms | Ski Conditions
United States | Canada | Central America | South America | Asia | Europe | Australia | Africa | Islands

Weather Underground

© Copyright 2017
The Weather Company, LLC